Terminal Aerodrome Forecast
Issued by NWS

Home | Current Version | Previous Version | Graphics & Text | Print | Product List | Glossary On
Versions: 1 2 3 4 5 6 7 8 9 10 11 12 13 14 15 16
000
FTUS42 KMHX 291138
TAFPGV
TAF
KPGV 291138Z 2912/3012 00000KT 3SM BR SKC
      TEMPO 2912/2913 1/2SM FG VV002
     FM291300 02006KT P6SM SCT015
     FM291500 04010KT P6SM SCT025
     FM300000 07004KT P6SM FEW150
      AMD LTD TO CLD VIS AND WIND=

USA.gov is the U.S. government's official web portal to all federal, state and local government web resources and services.